sensor_id;sensor_type;location;lat;lon;timestamp;P1;durP1;ratioP1;P2;durP2;ratioP2
38805;SDS011;25635;51.146;17.162;2022-09-16T00:00:28;5.05;;;1.75;;
38805;SDS011;25635;51.146;17.162;2022-09-16T00:02:56;4.10;;;1.50;;
38805;SDS011;25635;51.146;17.162;2022-09-16T00:05:23;4.83;;;1.47;;
38805;SDS011;25635;51.146;17.162;2022-09-16T00:07:50;3.77;;;1.15;;
38805;SDS011;25635;51.146;17.162;2022-09-16T00:10:17;5.03;;;1.30;;
38805;SDS011;25635;51.146;17.162;2022-09-16T00:12:44;5.83;;;1.50;;
38805;SDS011;25635;51.146;17.162;2022-09-16T00:15:11;6.17;;;1.50;;
38805;SDS011;25635;51.146;17.162;2022-09-16T00:17:38;4.72;;;1.42;;
38805;SDS011;25635;51.146;17.162;2022-09-16T00:20:05;3.92;;;1.40;;
38805;SDS011;25635;51.146;17.162;2022-09-16T00:22:38;5.25;;;1.50;;
38805;SDS011;25635;51.146;17.162;2022-09-16T00:25:05;4.12;;;1.25;;
38805;SDS011;25635;51.146;17.162;2022-09-16T00:27:32;5.12;;;1.30;;
38805;SDS011;25635;51.146;17.162;2022-09-16T00:29:58;8.00;;;1.55;;
38805;SDS011;25635;51.146;17.162;2022-09-16T00:32:24;5.47;;;1.60;;
38805;SDS011;25635;51.146;17.162;2022-09-16T00:34:51;3.92;;;1.50;;
38805;SDS011;25635;51.146;17.162;2022-09-16T00:37:17;6.50;;;1.50;;
38805;SDS011;25635;51.146;17.162;2022-09-16T00:39:46;5.40;;;1.42;;
38805;SDS011;25635;51.146;17.162;2022-09-16T00:42:14;3.83;;;1.10;;
38805;SDS011;25635;51.146;17.162;2022-09-16T00:44:58;5.95;;;1.20;;
38805;SDS011;25635;51.146;17.162;2022-09-16T00:47:36;6.95;;;1.55;;
38805;SDS011;25635;51.146;17.162;2022-09-16T00:50:09;6.92;;;1.60;;
38805;SDS011;25635;51.146;17.162;2022-09-16T00:52:48;5.87;;;1.67;;
38805;SDS011;25635;51.146;17.162;2022-09-16T00:55:18;5.03;;;1.52;;
38805;SDS011;25635;51.146;17.162;2022-09-16T00:57:49;5.65;;;1.32;;
38805;SDS011;25635;51.146;17.162;2022-09-16T01:00:17;4.47;;;1.10;;
38805;SDS011;25635;51.146;17.162;2022-09-16T01:02:43;3.98;;;1.20;;
38805;SDS011;25635;51.146;17.162;2022-09-16T01:05:13;6.53;;;1.27;;
38805;SDS011;25635;51.146;17.162;2022-09-16T01:07:45;5.03;;;1.37;;
38805;SDS011;25635;51.146;17.162;2022-09-16T01:10:15;3.77;;;1.17;;
38805;SDS011;25635;51.146;17.162;2022-09-16T01:12:49;6.40;;;1.20;;
38805;SDS011;25635;51.146;17.162;2022-09-16T01:15:22;5.12;;;1.30;;
38805;SDS011;25635;51.146;17.162;2022-09-16T01:20:59;6.03;;;1.40;;
38805;SDS011;25635;51.146;17.162;2022-09-16T01:32:57;5.80;;;1.07;;
38805;SDS011;25635;51.146;17.162;2022-09-16T01:35:40;5.45;;;1.17;;
38805;SDS011;25635;51.146;17.162;2022-09-16T01:38:27;5.30;;;1.22;;
38805;SDS011;25635;51.146;17.162;2022-09-16T01:41:11;4.87;;;1.37;;
38805;SDS011;25635;51.146;17.162;2022-09-16T01:44:00;6.62;;;1.20;;
38805;SDS011;25635;51.146;17.162;2022-09-16T01:55:34;4.15;;;1.20;;
38805;SDS011;25635;51.146;17.162;2022-09-16T01:58:03;4.35;;;1.15;;
38805;SDS011;25635;51.146;17.162;2022-09-16T02:00:42;6.58;;;1.30;;
38805;SDS011;25635;51.146;17.162;2022-09-16T02:03:13;4.28;;;1.10;;
38805;SDS011;25635;51.146;17.162;2022-09-16T02:05:57;4.80;;;1.10;;
38805;SDS011;25635;51.146;17.162;2022-09-16T02:08:34;4.90;;;1.40;;
38805;SDS011;25635;51.146;17.162;2022-09-16T02:11:13;6.30;;;1.55;;
38805;SDS011;25635;51.146;17.162;2022-09-16T02:13:42;9.83;;;1.92;;
38805;SDS011;25635;51.146;17.162;2022-09-16T02:16:25;9.35;;;1.65;;
38805;SDS011;25635;51.146;17.162;2022-09-16T02:19:04;5.65;;;1.35;;
38805;SDS011;25635;51.146;17.162;2022-09-16T02:21:40;4.75;;;1.10;;
38805;SDS011;25635;51.146;17.162;2022-09-16T02:24:08;4.28;;;1.32;;
38805;SDS011;25635;51.146;17.162;2022-09-16T02:26:39;3.92;;;1.40;;
38805;SDS011;25635;51.146;17.162;2022-09-16T02:29:11;7.53;;;1.40;;
38805;SDS011;25635;51.146;17.162;2022-09-16T02:31:44;5.12;;;1.07;;
38805;SDS011;25635;51.146;17.162;2022-09-16T02:34:18;3.87;;;1.00;;
38805;SDS011;25635;51.146;17.162;2022-09-16T02:36:44;4.17;;;0.90;;
38805;SDS011;25635;51.146;17.162;2022-09-16T02:39:16;4.08;;;1.02;;
38805;SDS011;25635;51.146;17.162;2022-09-16T02:41:46;4.25;;;1.10;;
38805;SDS011;25635;51.146;17.162;2022-09-16T02:44:13;5.45;;;1.20;;
38805;SDS011;25635;51.146;17.162;2022-09-16T02:52:22;3.12;;;0.80;;
38805;SDS011;25635;51.146;17.162;2022-09-16T02:55:09;4.90;;;1.10;;
38805;SDS011;25635;51.146;17.162;2022-09-16T02:57:42;4.35;;;1.02;;
38805;SDS011;25635;51.146;17.162;2022-09-16T03:00:08;4.17;;;1.10;;
38805;SDS011;25635;51.146;17.162;2022-09-16T03:02:35;4.67;;;1.00;;
38805;SDS011;25635;51.146;17.162;2022-09-16T03:05:01;2.85;;;0.88;;
38805;SDS011;25635;51.146;17.162;2022-09-16T03:07:29;5.53;;;1.02;;
38805;SDS011;25635;51.146;17.162;2022-09-16T03:09:55;5.87;;;1.37;;
38805;SDS011;25635;51.146;17.162;2022-09-16T03:12:33;5.78;;;1.20;;
38805;SDS011;25635;51.146;17.162;2022-09-16T03:18:26;6.00;;;0.85;;
38805;SDS011;25635;51.146;17.162;2022-09-16T03:21:16;4.35;;;0.95;;
38805;SDS011;25635;51.146;17.162;2022-09-16T03:24:06;4.00;;;0.90;;
38805;SDS011;25635;51.146;17.162;2022-09-16T03:26:40;5.35;;;0.90;;
38805;SDS011;25635;51.146;17.162;2022-09-16T03:29:43;3.85;;;0.80;;
38805;SDS011;25635;51.146;17.162;2022-09-16T03:34:54;2.70;;;0.60;;
38805;SDS011;25635;51.146;17.162;2022-09-16T03:37:34;4.10;;;1.15;;
38805;SDS011;25635;51.146;17.162;2022-09-16T03:40:07;6.05;;;0.95;;
38805;SDS011;25635;51.146;17.162;2022-09-16T03:42:38;4.65;;;1.05;;
38805;SDS011;25635;51.146;17.162;2022-09-16T03:45:08;3.95;;;0.78;;
38805;SDS011;25635;51.146;17.162;2022-09-16T03:47:38;7.37;;;0.98;;
38805;SDS011;25635;51.146;17.162;2022-09-16T03:50:05;4.17;;;0.80;;
38805;SDS011;25635;51.146;17.162;2022-09-16T03:52:32;4.25;;;0.90;;
38805;SDS011;25635;51.146;17.162;2022-09-16T03:54:58;4.10;;;1.10;;
38805;SDS011;25635;51.146;17.162;2022-09-16T03:57:24;4.55;;;1.25;;
38805;SDS011;25635;51.146;17.162;2022-09-16T03:59:53;5.08;;;1.17;;
38805;SDS011;25635;51.146;17.162;2022-09-16T04:02:19;3.75;;;1.17;;
38805;SDS011;25635;51.146;17.162;2022-09-16T04:04:45;2.80;;;0.93;;
38805;SDS011;25635;51.146;17.162;2022-09-16T04:07:11;4.40;;;1.07;;
38805;SDS011;25635;51.146;17.162;2022-09-16T04:09:38;5.17;;;0.70;;
38805;SDS011;25635;51.146;17.162;2022-09-16T04:12:04;4.30;;;0.88;;
38805;SDS011;25635;51.146;17.162;2022-09-16T04:14:32;4.60;;;0.80;;
38805;SDS011;25635;51.146;17.162;2022-09-16T04:17:05;3.35;;;0.90;;
38805;SDS011;25635;51.146;17.162;2022-09-16T04:19:31;4.90;;;1.00;;
38805;SDS011;25635;51.146;17.162;2022-09-16T04:21:58;5.12;;;1.00;;
38805;SDS011;25635;51.146;17.162;2022-09-16T04:24:24;3.12;;;0.95;;
38805;SDS011;25635;51.146;17.162;2022-09-16T04:26:50;4.62;;;1.25;;
38805;SDS011;25635;51.146;17.162;2022-09-16T04:29:16;3.02;;;1.00;;
38805;SDS011;25635;51.146;17.162;2022-09-16T04:31:43;3.70;;;1.00;;
38805;SDS011;25635;51.146;17.162;2022-09-16T04:34:09;5.12;;;1.25;;
38805;SDS011;25635;51.146;17.162;2022-09-16T04:36:36;4.05;;;1.02;;
38805;SDS011;25635;51.146;17.162;2022-09-16T04:39:04;2.85;;;0.72;;
38805;SDS011;25635;51.146;17.162;2022-09-16T04:41:30;4.95;;;0.90;;
38805;SDS011;25635;51.146;17.162;2022-09-16T04:43:57;3.47;;;0.70;;
38805;SDS011;25635;51.146;17.162;2022-09-16T04:46:26;4.00;;;0.70;;
38805;SDS011;25635;51.146;17.162;2022-09-16T04:48:55;2.75;;;0.70;;
38805;SDS011;25635;51.146;17.162;2022-09-16T04:51:22;2.85;;;0.80;;
38805;SDS011;25635;51.146;17.162;2022-09-16T04:53:51;2.22;;;0.57;;
38805;SDS011;25635;51.146;17.162;2022-09-16T04:56:22;3.20;;;0.80;;
38805;SDS011;25635;51.146;17.162;2022-09-16T04:58:51;3.55;;;0.82;;
38805;SDS011;25635;51.146;17.162;2022-09-16T05:01:21;3.72;;;0.70;;
38805;SDS011;25635;51.146;17.162;2022-09-16T05:03:51;3.22;;;0.90;;
38805;SDS011;25635;51.146;17.162;2022-09-16T05:06:20;5.35;;;0.78;;
38805;SDS011;25635;51.146;17.162;2022-09-16T05:08:50;2.37;;;0.78;;
38805;SDS011;25635;51.146;17.162;2022-09-16T05:11:20;3.35;;;0.75;;
38805;SDS011;25635;51.146;17.162;2022-09-16T05:13:52;2.27;;;0.70;;
38805;SDS011;25635;51.146;17.162;2022-09-16T05:16:20;3.60;;;1.07;;
38805;SDS011;25635;51.146;17.162;2022-09-16T05:18:48;2.62;;;0.80;;
38805;SDS011;25635;51.146;17.162;2022-09-16T05:21:18;3.20;;;0.93;;
38805;SDS011;25635;51.146;17.162;2022-09-16T05:23:47;3.70;;;1.00;;
38805;SDS011;25635;51.146;17.162;2022-09-16T05:26:18;2.70;;;0.82;;
38805;SDS011;25635;51.146;17.162;2022-09-16T05:28:47;2.40;;;0.80;;
38805;SDS011;25635;51.146;17.162;2022-09-16T05:31:20;4.72;;;1.00;;
38805;SDS011;25635;51.146;17.162;2022-09-16T05:33:53;3.35;;;1.10;;
38805;SDS011;25635;51.146;17.162;2022-09-16T05:36:32;3.50;;;1.00;;
38805;SDS011;25635;51.146;17.162;2022-09-16T05:39:02;3.72;;;1.30;;
38805;SDS011;25635;51.146;17.162;2022-09-16T05:41:28;4.75;;;1.20;;
38805;SDS011;25635;51.146;17.162;2022-09-16T05:43:56;4.42;;;1.10;;
38805;SDS011;25635;51.146;17.162;2022-09-16T05:46:25;3.17;;;1.07;;
38805;SDS011;25635;51.146;17.162;2022-09-16T05:48:52;3.40;;;1.20;;
38805;SDS011;25635;51.146;17.162;2022-09-16T05:51:20;5.03;;;1.42;;
38805;SDS011;25635;51.146;17.162;2022-09-16T05:53:51;5.72;;;1.45;;
38805;SDS011;25635;51.146;17.162;2022-09-16T05:56:20;5.15;;;1.80;;
38805;SDS011;25635;51.146;17.162;2022-09-16T05:58:54;7.30;;;1.82;;
38805;SDS011;25635;51.146;17.162;2022-09-16T06:01:24;5.12;;;1.82;;
38805;SDS011;25635;51.146;17.162;2022-09-16T06:03:56;4.35;;;1.62;;
38805;SDS011;25635;51.146;17.162;2022-09-16T06:06:32;4.97;;;1.80;;
38805;SDS011;25635;51.146;17.162;2022-09-16T06:09:05;5.55;;;1.60;;
38805;SDS011;25635;51.146;17.162;2022-09-16T06:11:48;7.45;;;1.70;;
38805;SDS011;25635;51.146;17.162;2022-09-16T06:14:16;6.30;;;1.65;;
38805;SDS011;25635;51.146;17.162;2022-09-16T06:16:45;4.83;;;1.72;;
38805;SDS011;25635;51.146;17.162;2022-09-16T06:19:12;5.20;;;1.57;;
38805;SDS011;25635;51.146;17.162;2022-09-16T06:21:42;5.12;;;1.85;;
38805;SDS011;25635;51.146;17.162;2022-09-16T06:24:10;5.17;;;1.72;;
38805;SDS011;25635;51.146;17.162;2022-09-16T06:26:39;5.00;;;1.52;;
38805;SDS011;25635;51.146;17.162;2022-09-16T06:29:12;7.33;;;1.67;;
38805;SDS011;25635;51.146;17.162;2022-09-16T06:31:44;5.50;;;1.98;;
38805;SDS011;25635;51.146;17.162;2022-09-16T06:34:14;4.95;;;1.80;;
38805;SDS011;25635;51.146;17.162;2022-09-16T06:36:43;6.67;;;1.75;;
38805;SDS011;25635;51.146;17.162;2022-09-16T06:39:14;4.25;;;1.67;;
38805;SDS011;25635;51.146;17.162;2022-09-16T06:41:40;6.55;;;1.98;;
38805;SDS011;25635;51.146;17.162;2022-09-16T06:44:07;4.97;;;2.17;;
38805;SDS011;25635;51.146;17.162;2022-09-16T06:46:33;5.10;;;1.90;;
38805;SDS011;25635;51.146;17.162;2022-09-16T06:49:00;5.45;;;1.75;;
38805;SDS011;25635;51.146;17.162;2022-09-16T06:51:27;4.70;;;2.10;;
38805;SDS011;25635;51.146;17.162;2022-09-16T06:53:59;5.65;;;1.80;;
38805;SDS011;25635;51.146;17.162;2022-09-16T06:56:29;3.90;;;1.82;;
38805;SDS011;25635;51.146;17.162;2022-09-16T06:58:55;3.72;;;1.65;;
38805;SDS011;25635;51.146;17.162;2022-09-16T07:01:24;5.20;;;1.65;;
38805;SDS011;25635;51.146;17.162;2022-09-16T07:03:55;3.42;;;1.60;;
38805;SDS011;25635;51.146;17.162;2022-09-16T07:06:23;4.90;;;1.62;;
38805;SDS011;25635;51.146;17.162;2022-09-16T07:08:54;6.10;;;1.75;;
38805;SDS011;25635;51.146;17.162;2022-09-16T07:11:21;5.60;;;1.87;;
38805;SDS011;25635;51.146;17.162;2022-09-16T07:13:49;6.47;;;1.98;;
38805;SDS011;25635;51.146;17.162;2022-09-16T07:16:18;5.50;;;1.60;;
38805;SDS011;25635;51.146;17.162;2022-09-16T07:18:51;3.83;;;1.50;;
38805;SDS011;25635;51.146;17.162;2022-09-16T07:21:22;4.03;;;1.50;;
38805;SDS011;25635;51.146;17.162;2022-09-16T07:23:53;4.62;;;1.25;;
38805;SDS011;25635;51.146;17.162;2022-09-16T07:26:23;6.85;;;1.50;;
38805;SDS011;25635;51.146;17.162;2022-09-16T07:28:53;4.47;;;1.75;;
38805;SDS011;25635;51.146;17.162;2022-09-16T07:31:24;9.33;;;2.30;;
38805;SDS011;25635;51.146;17.162;2022-09-16T07:33:54;5.83;;;1.65;;
38805;SDS011;25635;51.146;17.162;2022-09-16T07:36:24;8.63;;;2.00;;
38805;SDS011;25635;51.146;17.162;2022-09-16T07:38:54;5.72;;;1.40;;
38805;SDS011;25635;51.146;17.162;2022-09-16T07:41:24;5.87;;;1.52;;
38805;SDS011;25635;51.146;17.162;2022-09-16T07:43:57;6.67;;;1.52;;
38805;SDS011;25635;51.146;17.162;2022-09-16T07:46:24;4.17;;;1.40;;
38805;SDS011;25635;51.146;17.162;2022-09-16T07:48:54;5.87;;;1.50;;
38805;SDS011;25635;51.146;17.162;2022-09-16T07:51:23;5.58;;;1.40;;
38805;SDS011;25635;51.146;17.162;2022-09-16T07:53:54;5.75;;;1.60;;
38805;SDS011;25635;51.146;17.162;2022-09-16T07:56:29;3.92;;;1.40;;
38805;SDS011;25635;51.146;17.162;2022-09-16T07:58:59;9.00;;;1.55;;
38805;SDS011;25635;51.146;17.162;2022-09-16T08:01:27;7.35;;;1.50;;
38805;SDS011;25635;51.146;17.162;2022-09-16T08:03:55;4.55;;;1.37;;
38805;SDS011;25635;51.146;17.162;2022-09-16T08:06:26;3.25;;;1.10;;
38805;SDS011;25635;51.146;17.162;2022-09-16T08:08:55;6.67;;;1.17;;
38805;SDS011;25635;51.146;17.162;2022-09-16T08:11:26;3.52;;;1.10;;
38805;SDS011;25635;51.146;17.162;2022-09-16T08:13:53;3.90;;;1.30;;
38805;SDS011;25635;51.146;17.162;2022-09-16T08:16:20;5.25;;;0.98;;
38805;SDS011;25635;51.146;17.162;2022-09-16T08:18:48;4.25;;;1.40;;
38805;SDS011;25635;51.146;17.162;2022-09-16T08:21:20;4.55;;;1.20;;
38805;SDS011;25635;51.146;17.162;2022-09-16T08:23:50;3.70;;;1.05;;
38805;SDS011;25635;51.146;17.162;2022-09-16T08:26:17;3.65;;;1.02;;
38805;SDS011;25635;51.146;17.162;2022-09-16T08:28:45;5.97;;;1.00;;
38805;SDS011;25635;51.146;17.162;2022-09-16T08:31:15;3.85;;;0.80;;
38805;SDS011;25635;51.146;17.162;2022-09-16T08:33:43;4.35;;;1.17;;
38805;SDS011;25635;51.146;17.162;2022-09-16T08:36:11;3.83;;;1.02;;
38805;SDS011;25635;51.146;17.162;2022-09-16T08:38:42;3.52;;;0.90;;
38805;SDS011;25635;51.146;17.162;2022-09-16T08:50:18;4.30;;;1.10;;
38805;SDS011;25635;51.146;17.162;2022-09-16T08:52:44;5.60;;;1.30;;
38805;SDS011;25635;51.146;17.162;2022-09-16T09:00:59;11.53;;;2.60;;
38805;SDS011;25635;51.146;17.162;2022-09-16T09:03:39;5.75;;;1.20;;
38805;SDS011;25635;51.146;17.162;2022-09-16T09:06:13;17.35;;;1.62;;
38805;SDS011;25635;51.146;17.162;2022-09-16T09:09:46;4.72;;;0.70;;
38805;SDS011;25635;51.146;17.162;2022-09-16T09:20:33;3.90;;;0.65;;
38805;SDS011;25635;51.146;17.162;2022-09-16T09:37:53;3.83;;;0.60;;
38805;SDS011;25635;51.146;17.162;2022-09-16T09:40:36;4.05;;;0.75;;
38805;SDS011;25635;51.146;17.162;2022-09-16T09:43:27;4.97;;;0.60;;
38805;SDS011;25635;51.146;17.162;2022-09-16T09:46:03;6.10;;;0.68;;
38805;SDS011;25635;51.146;17.162;2022-09-16T09:51:21;2.05;;;0.62;;
38805;SDS011;25635;51.146;17.162;2022-09-16T09:54:18;3.27;;;0.60;;
38805;SDS011;25635;51.146;17.162;2022-09-16T09:56:43;4.33;;;0.70;;
38805;SDS011;25635;51.146;17.162;2022-09-16T10:02:15;4.83;;;0.80;;
38805;SDS011;25635;51.146;17.162;2022-09-16T10:04:44;3.30;;;0.70;;
38805;SDS011;25635;51.146;17.162;2022-09-16T10:07:12;4.92;;;0.80;;
38805;SDS011;25635;51.146;17.162;2022-09-16T10:09:54;4.58;;;0.78;;
38805;SDS011;25635;51.146;17.162;2022-09-16T10:12:33;4.80;;;0.65;;
38805;SDS011;25635;51.146;17.162;2022-09-16T10:15:01;3.95;;;0.70;;
38805;SDS011;25635;51.146;17.162;2022-09-16T10:17:30;3.27;;;0.70;;
38805;SDS011;25635;51.146;17.162;2022-09-16T10:20:17;3.60;;;0.50;;
38805;SDS011;25635;51.146;17.162;2022-09-16T10:22:33;3.83;;;0.40;;
38805;SDS011;25635;51.146;17.162;2022-09-16T10:25:01;1.37;;;0.35;;
38805;SDS011;25635;51.146;17.162;2022-09-16T10:27:35;2.90;;;0.40;;
38805;SDS011;25635;51.146;17.162;2022-09-16T10:33:00;2.50;;;0.50;;
38805;SDS011;25635;51.146;17.162;2022-09-16T10:35:19;2.87;;;0.60;;
38805;SDS011;25635;51.146;17.162;2022-09-16T10:37:53;1.98;;;0.40;;
38805;SDS011;25635;51.146;17.162;2022-09-16T10:40:32;3.50;;;0.65;;
38805;SDS011;25635;51.146;17.162;2022-09-16T10:43:01;3.15;;;0.57;;
38805;SDS011;25635;51.146;17.162;2022-09-16T10:45:30;2.55;;;0.47;;
38805;SDS011;25635;51.146;17.162;2022-09-16T10:48:10;3.75;;;0.50;;
38805;SDS011;25635;51.146;17.162;2022-09-16T10:50:50;4.15;;;0.65;;
38805;SDS011;25635;51.146;17.162;2022-09-16T10:56:00;2.62;;;0.50;;
38805;SDS011;25635;51.146;17.162;2022-09-16T10:58:30;6.58;;;0.75;;
38805;SDS011;25635;51.146;17.162;2022-09-16T11:07:20;1.82;;;0.35;;
38805;SDS011;25635;51.146;17.162;2022-09-16T11:10:04;2.72;;;0.55;;
38805;SDS011;25635;51.146;17.162;2022-09-16T11:12:39;3.80;;;0.70;;
38805;SDS011;25635;51.146;17.162;2022-09-16T11:15:31;3.98;;;0.80;;
38805;SDS011;25635;51.146;17.162;2022-09-16T11:18:24;3.62;;;0.72;;
38805;SDS011;25635;51.146;17.162;2022-09-16T11:21:19;2.65;;;0.50;;
38805;SDS011;25635;51.146;17.162;2022-09-16T11:30:07;2.77;;;0.42;;
38805;SDS011;25635;51.146;17.162;2022-09-16T11:32:50;4.30;;;0.50;;
38805;SDS011;25635;51.146;17.162;2022-09-16T11:39:03;2.30;;;0.40;;
38805;SDS011;25635;51.146;17.162;2022-09-16T11:41:59;2.62;;;0.40;;
38805;SDS011;25635;51.146;17.162;2022-09-16T11:47:00;3.27;;;0.60;;
38805;SDS011;25635;51.146;17.162;2022-09-16T11:49:58;4.60;;;0.82;;
38805;SDS011;25635;51.146;17.162;2022-09-16T11:56:00;3.70;;;0.40;;
38805;SDS011;25635;51.146;17.162;2022-09-16T12:09:25;4.08;;;0.60;;
38805;SDS011;25635;51.146;17.162;2022-09-16T12:12:15;2.95;;;0.40;;
38805;SDS011;25635;51.146;17.162;2022-09-16T12:14:45;2.52;;;0.60;;
38805;SDS011;25635;51.146;17.162;2022-09-16T12:20:17;1.82;;;0.40;;
38805;SDS011;25635;51.146;17.162;2022-09-16T12:22:49;3.30;;;0.55;;
38805;SDS011;25635;51.146;17.162;2022-09-16T12:28:18;2.75;;;0.50;;
38805;SDS011;25635;51.146;17.162;2022-09-16T12:31:12;4.72;;;0.55;;
38805;SDS011;25635;51.146;17.162;2022-09-16T12:36:31;3.08;;;0.72;;
38805;SDS011;25635;51.146;17.162;2022-09-16T12:39:00;3.12;;;0.60;;
38805;SDS011;25635;51.146;17.162;2022-09-16T12:56:09;2.47;;;0.33;;
38805;SDS011;25635;51.146;17.162;2022-09-16T13:01:50;2.35;;;0.60;;
38805;SDS011;25635;51.146;17.162;2022-09-16T13:04:25;2.15;;;0.33;;
38805;SDS011;25635;51.146;17.162;2022-09-16T13:06:55;5.08;;;0.65;;
38805;SDS011;25635;51.146;17.162;2022-09-16T13:09:25;3.77;;;0.60;;
38805;SDS011;25635;51.146;17.162;2022-09-16T13:12:04;3.67;;;0.60;;
38805;SDS011;25635;51.146;17.162;2022-09-16T13:14:48;3.77;;;0.57;;
38805;SDS011;25635;51.146;17.162;2022-09-16T13:17:30;3.42;;;0.50;;
38805;SDS011;25635;51.146;17.162;2022-09-16T13:23:02;4.20;;;0.40;;
38805;SDS011;25635;51.146;17.162;2022-09-16T13:26:02;3.12;;;0.60;;
38805;SDS011;25635;51.146;17.162;2022-09-16T13:28:35;2.35;;;0.50;;
38805;SDS011;25635;51.146;17.162;2022-09-16T13:31:18;1.85;;;0.30;;
38805;SDS011;25635;51.146;17.162;2022-09-16T13:33:48;2.37;;;0.50;;
38805;SDS011;25635;51.146;17.162;2022-09-16T13:38:57;3.02;;;0.40;;
38805;SDS011;25635;51.146;17.162;2022-09-16T13:41:33;2.65;;;0.30;;
38805;SDS011;25635;51.146;17.162;2022-09-16T13:52:34;1.47;;;0.50;;
38805;SDS011;25635;51.146;17.162;2022-09-16T13:55:04;1.30;;;0.30;;
38805;SDS011;25635;51.146;17.162;2022-09-16T13:57:46;2.17;;;0.30;;
38805;SDS011;25635;51.146;17.162;2022-09-16T14:06:11;0.40;;;0.10;;
38805;SDS011;25635;51.146;17.162;2022-09-16T14:09:14;1.20;;;0.25;;
38805;SDS011;25635;51.146;17.162;2022-09-16T14:14:08;1.07;;;0.20;;
38805;SDS011;25635;51.146;17.162;2022-09-16T14:16:41;2.77;;;0.62;;
38805;SDS011;25635;51.146;17.162;2022-09-16T14:22:00;6.00;;;0.20;;
38805;SDS011;25635;51.146;17.162;2022-09-16T14:24:42;1.22;;;0.15;;
38805;SDS011;25635;51.146;17.162;2022-09-16T14:27:25;1.17;;;0.20;;
38805;SDS011;25635;51.146;17.162;2022-09-16T14:30:16;0.72;;;0.10;;
38805;SDS011;25635;51.146;17.162;2022-09-16T14:32:46;2.58;;;0.30;;
38805;SDS011;25635;51.146;17.162;2022-09-16T14:38:08;1.20;;;0.20;;
38805;SDS011;25635;51.146;17.162;2022-09-16T14:40:50;1.62;;;0.15;;
38805;SDS011;25635;51.146;17.162;2022-09-16T14:43:17;2.35;;;0.28;;
38805;SDS011;25635;51.146;17.162;2022-09-16T14:45:47;1.77;;;0.20;;
38805;SDS011;25635;51.146;17.162;2022-09-16T14:48:17;1.95;;;0.13;;
38805;SDS011;25635;51.146;17.162;2022-09-16T14:50:47;1.75;;;0.20;;
38805;SDS011;25635;51.146;17.162;2022-09-16T14:53:29;1.98;;;0.30;;
38805;SDS011;25635;51.146;17.162;2022-09-16T14:55:56;3.22;;;0.33;;
38805;SDS011;25635;51.146;17.162;2022-09-16T14:58:24;1.72;;;0.20;;
38805;SDS011;25635;51.146;17.162;2022-09-16T15:01:01;1.40;;;0.20;;
38805;SDS011;25635;51.146;17.162;2022-09-16T15:03:42;1.87;;;0.30;;
38805;SDS011;25635;51.146;17.162;2022-09-16T15:06:19;2.72;;;0.47;;
38805;SDS011;25635;51.146;17.162;2022-09-16T15:08:50;3.25;;;0.33;;
38805;SDS011;25635;51.146;17.162;2022-09-16T15:11:28;1.65;;;0.30;;
38805;SDS011;25635;51.146;17.162;2022-09-16T15:13:57;1.57;;;0.40;;
38805;SDS011;25635;51.146;17.162;2022-09-16T15:16:24;2.45;;;0.30;;
38805;SDS011;25635;51.146;17.162;2022-09-16T15:21:24;1.07;;;0.30;;
38805;SDS011;25635;51.146;17.162;2022-09-16T15:23:55;3.50;;;0.50;;
38805;SDS011;25635;51.146;17.162;2022-09-16T15:31:52;2.80;;;0.30;;
38805;SDS011;25635;51.146;17.162;2022-09-16T15:34:20;2.02;;;0.50;;
38805;SDS011;25635;51.146;17.162;2022-09-16T15:36:57;1.85;;;0.45;;
38805;SDS011;25635;51.146;17.162;2022-09-16T15:39:25;3.70;;;0.70;;
38805;SDS011;25635;51.146;17.162;2022-09-16T15:44:46;1.07;;;0.30;;
38805;SDS011;25635;51.146;17.162;2022-09-16T15:47:24;1.40;;;0.35;;
38805;SDS011;25635;51.146;17.162;2022-09-16T15:49:54;2.87;;;0.50;;
38805;SDS011;25635;51.146;17.162;2022-09-16T15:52:24;2.15;;;0.55;;
38805;SDS011;25635;51.146;17.162;2022-09-16T15:54:52;2.02;;;0.40;;
38805;SDS011;25635;51.146;17.162;2022-09-16T15:57:36;1.90;;;0.50;;
38805;SDS011;25635;51.146;17.162;2022-09-16T16:00:11;2.08;;;0.50;;
38805;SDS011;25635;51.146;17.162;2022-09-16T16:05:21;3.42;;;0.50;;
38805;SDS011;25635;51.146;17.162;2022-09-16T16:07:53;2.02;;;0.40;;
38805;SDS011;25635;51.146;17.162;2022-09-16T16:10:29;2.15;;;0.50;;
38805;SDS011;25635;51.146;17.162;2022-09-16T16:13:00;2.75;;;0.55;;
38805;SDS011;25635;51.146;17.162;2022-09-16T16:15:32;3.22;;;0.60;;
38805;SDS011;25635;51.146;17.162;2022-09-16T16:18:02;2.90;;;0.53;;
38805;SDS011;25635;51.146;17.162;2022-09-16T16:20:31;2.60;;;0.72;;
38805;SDS011;25635;51.146;17.162;2022-09-16T16:22:59;2.10;;;0.50;;
38805;SDS011;25635;51.146;17.162;2022-09-16T16:25:27;4.40;;;0.62;;
38805;SDS011;25635;51.146;17.162;2022-09-16T16:27:53;4.40;;;0.75;;
38805;SDS011;25635;51.146;17.162;2022-09-16T16:30:20;2.30;;;0.57;;
38805;SDS011;25635;51.146;17.162;2022-09-16T16:32:46;4.35;;;0.80;;
38805;SDS011;25635;51.146;17.162;2022-09-16T16:35:13;2.60;;;0.93;;
38805;SDS011;25635;51.146;17.162;2022-09-16T16:37:39;2.10;;;0.50;;
38805;SDS011;25635;51.146;17.162;2022-09-16T16:40:06;2.95;;;0.80;;
38805;SDS011;25635;51.146;17.162;2022-09-16T16:42:33;5.50;;;0.90;;
38805;SDS011;25635;51.146;17.162;2022-09-16T16:45:00;6.92;;;1.10;;
38805;SDS011;25635;51.146;17.162;2022-09-16T16:47:27;3.80;;;1.05;;
38805;SDS011;25635;51.146;17.162;2022-09-16T16:49:53;2.85;;;0.82;;
38805;SDS011;25635;51.146;17.162;2022-09-16T16:52:19;4.97;;;0.85;;
38805;SDS011;25635;51.146;17.162;2022-09-16T16:54:45;4.20;;;1.17;;
38805;SDS011;25635;51.146;17.162;2022-09-16T16:57:12;2.80;;;0.90;;
38805;SDS011;25635;51.146;17.162;2022-09-16T16:59:38;2.92;;;1.10;;
38805;SDS011;25635;51.146;17.162;2022-09-16T17:02:04;3.75;;;1.20;;
38805;SDS011;25635;51.146;17.162;2022-09-16T17:04:30;3.50;;;1.00;;
38805;SDS011;25635;51.146;17.162;2022-09-16T17:06:57;4.40;;;0.80;;
38805;SDS011;25635;51.146;17.162;2022-09-16T17:09:23;1.80;;;0.60;;
38805;SDS011;25635;51.146;17.162;2022-09-16T17:11:53;4.42;;;0.60;;
38805;SDS011;25635;51.146;17.162;2022-09-16T17:14:27;3.30;;;0.60;;
38805;SDS011;25635;51.146;17.162;2022-09-16T17:16:53;2.72;;;0.62;;
38805;SDS011;25635;51.146;17.162;2022-09-16T17:19:21;2.72;;;0.78;;
38805;SDS011;25635;51.146;17.162;2022-09-16T17:21:50;5.72;;;2.00;;
38805;SDS011;25635;51.146;17.162;2022-09-16T17:24:18;5.97;;;2.27;;
38805;SDS011;25635;51.146;17.162;2022-09-16T17:26:45;10.82;;;6.30;;
38805;SDS011;25635;51.146;17.162;2022-09-16T17:29:12;11.00;;;6.62;;
38805;SDS011;25635;51.146;17.162;2022-09-16T17:31:39;11.85;;;7.10;;
38805;SDS011;25635;51.146;17.162;2022-09-16T17:34:08;8.50;;;5.20;;
38805;SDS011;25635;51.146;17.162;2022-09-16T17:36:38;8.50;;;5.03;;
38805;SDS011;25635;51.146;17.162;2022-09-16T17:39:10;7.78;;;4.10;;
38805;SDS011;25635;51.146;17.162;2022-09-16T17:41:40;7.25;;;4.03;;
38805;SDS011;25635;51.146;17.162;2022-09-16T17:44:08;10.25;;;4.37;;
38805;SDS011;25635;51.146;17.162;2022-09-16T17:46:37;8.20;;;4.50;;
38805;SDS011;25635;51.146;17.162;2022-09-16T17:49:05;8.13;;;3.58;;
38805;SDS011;25635;51.146;17.162;2022-09-16T17:51:40;6.90;;;2.65;;
38805;SDS011;25635;51.146;17.162;2022-09-16T17:54:08;5.53;;;2.30;;
38805;SDS011;25635;51.146;17.162;2022-09-16T17:56:35;6.75;;;2.83;;
38805;SDS011;25635;51.146;17.162;2022-09-16T17:59:01;10.13;;;3.27;;
38805;SDS011;25635;51.146;17.162;2022-09-16T18:01:28;11.55;;;4.58;;
38805;SDS011;25635;51.146;17.162;2022-09-16T18:03:55;9.10;;;4.87;;